Accueil
METAR-TAF:

METAR-TAF

Aéroports :

Île Lord Howe, Australie

latitude: 31-32-18S, longitude: 159-04-38E, altitude: 5 m

Observation

Le bulletin a été fait il y a 23 minutes, à 10:30 UTC
Vent 1 kt de sud-est
Température 11°C
Humidité 76%
Pression 1021 hPa
Visibilité 10 km ou plus

METAR: YLHI 221030Z AUTO 14001KT 9999 // NCD 11/07 Q1021

Heure: 20:53 (10:53 UTC)

Prévision

Le bulletin a été fait il y a 5 heures et 31 minutes, à 05:22 UTC
Prévision valable du 22 à 06 UTC au 23 à 06 UTC
Vent 8 kt de sud
Visibilité 10 km ou plus
Nuages épars à une hauteur de 4000 ft
A partir de 22 à 0900 UTC
Vent 3 kt de sud
Visibilité 10 km ou plus
Nuages épars à une hauteur de 3000 ft

TAF: YLHI 220522Z 2206/2306 18008KT 9999 SCT040 FM220900 17003KT 9999 SCT030

Observations et prévisions météorologiques de plus de 4000 aéroports (messages METAR et TAF).

Les stations disponibles sont représentées par des disques jaunes et rouges sur la carte.

Passer la souris dessus pour voir le nom de la station.

Cliquer dessus pour voir les observations et prévisions météorologiques.

Pour changer de carte: cliquez sur les boutons verts avec une croix noire pour zoomer, sur le bouton vert avec un tiret pour effectuer un zoom arrière, ou sur les flèches vertes pour les cartes adjacentes.


METAR-TAF: